Notice: Undefined index: station in /home3/dimtiris/public_html/webApp/metar/index.php on line 4

Metar

Weather conditions for all airports of the world. Just type the ICAO code of an airport.

LGAV 020750Z 02024G37KT 9999 FEW030 30/16 Q1016 NOSIG

STATION LGAV
OBSERVED Sun Aug 2, 01:50 MDT
NOW Sun Aug 2, 02:14 MDT
AGE 24 min ago
WIND NNE at 28 mph, gusting to 43 mph
VISIBILITY 16 miles
CONDITIONS
CLOUDS partly cloudy
TEMP 86°F (30°C)
DEWPT 61°F (16°C)
HUMIDITY 43%
HEAT INDEX 86°F (30°C)
BAROMETER 1016 hPa (30 in Hg)

Get weather info from other station:

Some ICAO codes to try: